sensor_id;sensor_type;location;lat;lon;timestamp;P1;durP1;ratioP1;P2;durP2;ratioP2
83595;SDS011;73564;45.026;38.952;2024-03-02T00:00:18;13.35;;;6.70;;
83595;SDS011;73564;45.026;38.952;2024-03-02T00:02:47;13.52;;;6.85;;
83595;SDS011;73564;45.026;38.952;2024-03-02T00:05:18;16.30;;;8.18;;
83595;SDS011;73564;45.026;38.952;2024-03-02T00:07:54;13.65;;;6.50;;
83595;SDS011;73564;45.026;38.952;2024-03-02T00:10:22;17.20;;;8.07;;
83595;SDS011;73564;45.026;38.952;2024-03-02T00:12:58;17.40;;;8.30;;
83595;SDS011;73564;45.026;38.952;2024-03-02T00:17:56;10.55;;;5.85;;
83595;SDS011;73564;45.026;38.952;2024-03-02T00:20:25;14.38;;;5.95;;
83595;SDS011;73564;45.026;38.952;2024-03-02T00:23:05;16.50;;;8.80;;
83595;SDS011;73564;45.026;38.952;2024-03-02T00:25:47;24.05;;;8.65;;
83595;SDS011;73564;45.026;38.952;2024-03-02T00:28:19;19.92;;;9.05;;
83595;SDS011;73564;45.026;38.952;2024-03-02T00:33:46;21.90;;;7.78;;
83595;SDS011;73564;45.026;38.952;2024-03-02T00:36:14;25.73;;;8.75;;
83595;SDS011;73564;45.026;38.952;2024-03-02T00:38:48;14.07;;;7.85;;
83595;SDS011;73564;45.026;38.952;2024-03-02T00:41:25;17.40;;;9.60;;
83595;SDS011;73564;45.026;38.952;2024-03-02T00:44:05;20.67;;;7.45;;
83595;SDS011;73564;45.026;38.952;2024-03-02T00:46:34;19.45;;;8.40;;
83595;SDS011;73564;45.026;38.952;2024-03-02T00:49:03;21.48;;;8.57;;
83595;SDS011;73564;45.026;38.952;2024-03-02T00:51:31;23.83;;;10.80;;
83595;SDS011;73564;45.026;38.952;2024-03-02T00:53:58;17.42;;;8.25;;
83595;SDS011;73564;45.026;38.952;2024-03-02T00:56:26;18.17;;;9.00;;
83595;SDS011;73564;45.026;38.952;2024-03-02T00:58:52;16.30;;;7.93;;
83595;SDS011;73564;45.026;38.952;2024-03-02T01:01:18;26.40;;;8.80;;
83595;SDS011;73564;45.026;38.952;2024-03-02T01:03:47;16.58;;;7.72;;
83595;SDS011;73564;45.026;38.952;2024-03-02T01:06:17;14.50;;;6.97;;
83595;SDS011;73564;45.026;38.952;2024-03-02T01:08:43;18.60;;;7.97;;
83595;SDS011;73564;45.026;38.952;2024-03-02T01:11:10;12.38;;;7.90;;
83595;SDS011;73564;45.026;38.952;2024-03-02T01:13:35;23.20;;;9.70;;
83595;SDS011;73564;45.026;38.952;2024-03-02T01:16:01;9.57;;;5.20;;
83595;SDS011;73564;45.026;38.952;2024-03-02T01:18:27;12.93;;;6.57;;
83595;SDS011;73564;45.026;38.952;2024-03-02T01:20:54;12.50;;;5.97;;
83595;SDS011;73564;45.026;38.952;2024-03-02T01:23:24;13.43;;;7.30;;
83595;SDS011;73564;45.026;38.952;2024-03-02T01:25:50;18.05;;;8.48;;
83595;SDS011;73564;45.026;38.952;2024-03-02T01:28:17;18.80;;;9.52;;
83595;SDS011;73564;45.026;38.952;2024-03-02T01:30:43;14.38;;;6.88;;
83595;SDS011;73564;45.026;38.952;2024-03-02T01:33:10;17.48;;;6.65;;
83595;SDS011;73564;45.026;38.952;2024-03-02T01:35:36;21.40;;;9.10;;
83595;SDS011;73564;45.026;38.952;2024-03-02T01:38:02;19.58;;;8.50;;
83595;SDS011;73564;45.026;38.952;2024-03-02T01:40:29;12.80;;;5.05;;
83595;SDS011;73564;45.026;38.952;2024-03-02T01:42:55;15.57;;;6.50;;
83595;SDS011;73564;45.026;38.952;2024-03-02T01:45:23;13.10;;;7.30;;
83595;SDS011;73564;45.026;38.952;2024-03-02T01:47:49;18.30;;;8.95;;
83595;SDS011;73564;45.026;38.952;2024-03-02T01:50:15;14.00;;;6.25;;
83595;SDS011;73564;45.026;38.952;2024-03-02T01:52:49;14.77;;;7.40;;
83595;SDS011;73564;45.026;38.952;2024-03-02T01:55:15;13.88;;;7.60;;
83595;SDS011;73564;45.026;38.952;2024-03-02T01:57:41;12.30;;;6.03;;
83595;SDS011;73564;45.026;38.952;2024-03-02T02:00:07;12.00;;;6.65;;
83595;SDS011;73564;45.026;38.952;2024-03-02T02:02:37;14.38;;;7.50;;
83595;SDS011;73564;45.026;38.952;2024-03-02T02:05:03;10.05;;;5.82;;
83595;SDS011;73564;45.026;38.952;2024-03-02T02:07:29;17.60;;;8.63;;
83595;SDS011;73564;45.026;38.952;2024-03-02T02:09:55;17.85;;;7.15;;
83595;SDS011;73564;45.026;38.952;2024-03-02T02:12:21;20.60;;;9.20;;
83595;SDS011;73564;45.026;38.952;2024-03-02T02:14:47;17.52;;;8.02;;
83595;SDS011;73564;45.026;38.952;2024-03-02T02:17:16;15.85;;;6.47;;
83595;SDS011;73564;45.026;38.952;2024-03-02T02:19:42;17.88;;;8.32;;
83595;SDS011;73564;45.026;38.952;2024-03-02T02:22:08;11.32;;;5.88;;
83595;SDS011;73564;45.026;38.952;2024-03-02T02:24:35;12.10;;;5.93;;
83595;SDS011;73564;45.026;38.952;2024-03-02T02:27:01;15.38;;;7.00;;
83595;SDS011;73564;45.026;38.952;2024-03-02T02:29:27;10.70;;;6.38;;
83595;SDS011;73564;45.026;38.952;2024-03-02T02:31:52;16.02;;;5.78;;
83595;SDS011;73564;45.026;38.952;2024-03-02T02:34:18;14.02;;;6.43;;
83595;SDS011;73564;45.026;38.952;2024-03-02T02:36:44;11.10;;;5.13;;
83595;SDS011;73564;45.026;38.952;2024-03-02T02:39:11;14.70;;;6.95;;
83595;SDS011;73564;45.026;38.952;2024-03-02T02:41:41;12.38;;;6.40;;
83595;SDS011;73564;45.026;38.952;2024-03-02T02:44:06;11.40;;;5.35;;
83595;SDS011;73564;45.026;38.952;2024-03-02T02:46:32;13.07;;;6.78;;
83595;SDS011;73564;45.026;38.952;2024-03-02T02:48:58;11.15;;;5.53;;
83595;SDS011;73564;45.026;38.952;2024-03-02T02:51:24;16.55;;;6.35;;
83595;SDS011;73564;45.026;38.952;2024-03-02T02:53:51;14.75;;;6.53;;
83595;SDS011;73564;45.026;38.952;2024-03-02T02:56:16;13.45;;;7.07;;
83595;SDS011;73564;45.026;38.952;2024-03-02T02:58:42;14.50;;;5.80;;
83595;SDS011;73564;45.026;38.952;2024-03-02T03:01:08;18.77;;;6.82;;
83595;SDS011;73564;45.026;38.952;2024-03-02T03:03:34;14.23;;;7.32;;
83595;SDS011;73564;45.026;38.952;2024-03-02T03:06:00;13.57;;;5.97;;
83595;SDS011;73564;45.026;38.952;2024-03-02T03:08:25;14.57;;;6.53;;
83595;SDS011;73564;45.026;38.952;2024-03-02T03:10:51;18.38;;;7.47;;
83595;SDS011;73564;45.026;38.952;2024-03-02T03:13:17;15.95;;;7.32;;
83595;SDS011;73564;45.026;38.952;2024-03-02T03:15:43;10.30;;;5.32;;
83595;SDS011;73564;45.026;38.952;2024-03-02T03:18:08;13.43;;;6.28;;
83595;SDS011;73564;45.026;38.952;2024-03-02T03:20:35;15.15;;;7.60;;
83595;SDS011;73564;45.026;38.952;2024-03-02T03:23:01;12.30;;;6.13;;
83595;SDS011;73564;45.026;38.952;2024-03-02T03:25:29;15.43;;;8.65;;
83595;SDS011;73564;45.026;38.952;2024-03-02T03:27:55;13.13;;;6.15;;
83595;SDS011;73564;45.026;38.952;2024-03-02T03:30:21;10.82;;;5.43;;
83595;SDS011;73564;45.026;38.952;2024-03-02T03:32:47;10.23;;;5.40;;
83595;SDS011;73564;45.026;38.952;2024-03-02T03:35:15;12.00;;;6.55;;
83595;SDS011;73564;45.026;38.952;2024-03-02T03:37:41;11.57;;;6.35;;
83595;SDS011;73564;45.026;38.952;2024-03-02T03:40:07;15.93;;;6.97;;
83595;SDS011;73564;45.026;38.952;2024-03-02T03:42:36;11.05;;;5.50;;
83595;SDS011;73564;45.026;38.952;2024-03-02T03:45:02;16.15;;;6.72;;
83595;SDS011;73564;45.026;38.952;2024-03-02T03:47:29;13.43;;;5.55;;
83595;SDS011;73564;45.026;38.952;2024-03-02T03:52:21;15.80;;;7.25;;
83595;SDS011;73564;45.026;38.952;2024-03-02T03:54:47;16.58;;;5.32;;
83595;SDS011;73564;45.026;38.952;2024-03-02T03:57:13;14.88;;;5.88;;
83595;SDS011;73564;45.026;38.952;2024-03-02T03:59:39;11.30;;;6.18;;
83595;SDS011;73564;45.026;38.952;2024-03-02T04:02:04;12.88;;;5.90;;
83595;SDS011;73564;45.026;38.952;2024-03-02T04:04:30;12.85;;;6.68;;
83595;SDS011;73564;45.026;38.952;2024-03-02T04:06:56;16.58;;;6.38;;
83595;SDS011;73564;45.026;38.952;2024-03-02T04:09:22;16.85;;;6.90;;
83595;SDS011;73564;45.026;38.952;2024-03-02T04:11:47;15.85;;;6.45;;
83595;SDS011;73564;45.026;38.952;2024-03-02T04:14:13;18.67;;;8.20;;
83595;SDS011;73564;45.026;38.952;2024-03-02T04:16:39;15.20;;;7.97;;
83595;SDS011;73564;45.026;38.952;2024-03-02T04:19:05;9.75;;;5.65;;
83595;SDS011;73564;45.026;38.952;2024-03-02T04:21:31;16.00;;;7.80;;
83595;SDS011;73564;45.026;38.952;2024-03-02T04:23:56;26.30;;;8.25;;
83595;SDS011;73564;45.026;38.952;2024-03-02T04:26:24;14.02;;;6.70;;
83595;SDS011;73564;45.026;38.952;2024-03-02T04:28:51;13.18;;;6.35;;
83595;SDS011;73564;45.026;38.952;2024-03-02T04:31:17;20.23;;;6.82;;
83595;SDS011;73564;45.026;38.952;2024-03-02T04:33:44;15.63;;;8.45;;
83595;SDS011;73564;45.026;38.952;2024-03-02T04:36:10;17.70;;;7.10;;
83595;SDS011;73564;45.026;38.952;2024-03-02T04:38:36;12.90;;;7.35;;
83595;SDS011;73564;45.026;38.952;2024-03-02T04:41:02;16.98;;;8.55;;
83595;SDS011;73564;45.026;38.952;2024-03-02T04:43:28;17.23;;;7.10;;
83595;SDS011;73564;45.026;38.952;2024-03-02T04:45:54;20.50;;;7.63;;
83595;SDS011;73564;45.026;38.952;2024-03-02T04:48:20;17.48;;;8.23;;
83595;SDS011;73564;45.026;38.952;2024-03-02T04:50:47;15.88;;;7.13;;
83595;SDS011;73564;45.026;38.952;2024-03-02T04:53:13;17.27;;;7.25;;
83595;SDS011;73564;45.026;38.952;2024-03-02T04:55:39;14.73;;;7.22;;
83595;SDS011;73564;45.026;38.952;2024-03-02T04:58:04;20.88;;;6.93;;
83595;SDS011;73564;45.026;38.952;2024-03-02T05:00:31;12.38;;;5.82;;
83595;SDS011;73564;45.026;38.952;2024-03-02T05:02:58;16.08;;;7.40;;
83595;SDS011;73564;45.026;38.952;2024-03-02T05:05:23;14.45;;;6.30;;
83595;SDS011;73564;45.026;38.952;2024-03-02T05:07:49;10.05;;;5.53;;
83595;SDS011;73564;45.026;38.952;2024-03-02T05:10:15;17.10;;;7.85;;
83595;SDS011;73564;45.026;38.952;2024-03-02T05:12:41;21.13;;;9.23;;
83595;SDS011;73564;45.026;38.952;2024-03-02T05:15:07;16.30;;;8.05;;
83595;SDS011;73564;45.026;38.952;2024-03-02T05:17:35;13.60;;;6.93;;
83595;SDS011;73564;45.026;38.952;2024-03-02T05:20:02;19.30;;;8.52;;
83595;SDS011;73564;45.026;38.952;2024-03-02T05:22:31;21.33;;;9.75;;
83595;SDS011;73564;45.026;38.952;2024-03-02T05:24:57;25.30;;;9.90;;
83595;SDS011;73564;45.026;38.952;2024-03-02T05:29:50;12.23;;;5.78;;
83595;SDS011;73564;45.026;38.952;2024-03-02T05:32:16;21.58;;;9.15;;
83595;SDS011;73564;45.026;38.952;2024-03-02T05:34:41;9.88;;;5.70;;
83595;SDS011;73564;45.026;38.952;2024-03-02T05:37:07;19.75;;;7.93;;
83595;SDS011;73564;45.026;38.952;2024-03-02T05:39:33;15.27;;;7.10;;
83595;SDS011;73564;45.026;38.952;2024-03-02T05:41:59;21.27;;;9.95;;
83595;SDS011;73564;45.026;38.952;2024-03-02T05:44:25;17.42;;;8.80;;
83595;SDS011;73564;45.026;38.952;2024-03-02T05:46:50;16.63;;;9.13;;
83595;SDS011;73564;45.026;38.952;2024-03-02T05:49:16;16.50;;;8.15;;
83595;SDS011;73564;45.026;38.952;2024-03-02T05:51:42;12.95;;;6.90;;
83595;SDS011;73564;45.026;38.952;2024-03-02T05:54:08;27.83;;;9.43;;
83595;SDS011;73564;45.026;38.952;2024-03-02T05:56:34;19.35;;;8.00;;
83595;SDS011;73564;45.026;38.952;2024-03-02T05:59:00;17.27;;;6.32;;
83595;SDS011;73564;45.026;38.952;2024-03-02T06:01:42;17.88;;;8.45;;
83595;SDS011;73564;45.026;38.952;2024-03-02T06:04:09;19.98;;;8.80;;
83595;SDS011;73564;45.026;38.952;2024-03-02T06:06:41;18.60;;;8.93;;
83595;SDS011;73564;45.026;38.952;2024-03-02T06:09:07;21.90;;;9.60;;
83595;SDS011;73564;45.026;38.952;2024-03-02T06:14:00;22.20;;;8.15;;
83595;SDS011;73564;45.026;38.952;2024-03-02T06:16:25;18.88;;;8.07;;
83595;SDS011;73564;45.026;38.952;2024-03-02T06:18:51;15.32;;;7.05;;
83595;SDS011;73564;45.026;38.952;2024-03-02T06:21:19;14.10;;;6.85;;
83595;SDS011;73564;45.026;38.952;2024-03-02T06:23:45;17.40;;;7.07;;
83595;SDS011;73564;45.026;38.952;2024-03-02T06:26:11;28.15;;;9.68;;
83595;SDS011;73564;45.026;38.952;2024-03-02T06:28:38;21.10;;;8.20;;
83595;SDS011;73564;45.026;38.952;2024-03-02T06:31:03;15.85;;;8.40;;
83595;SDS011;73564;45.026;38.952;2024-03-02T06:33:29;20.55;;;8.52;;
83595;SDS011;73564;45.026;38.952;2024-03-02T06:35:55;16.30;;;7.43;;
83595;SDS011;73564;45.026;38.952;2024-03-02T06:38:21;24.27;;;10.05;;
83595;SDS011;73564;45.026;38.952;2024-03-02T06:40:47;25.38;;;9.73;;
83595;SDS011;73564;45.026;38.952;2024-03-02T06:43:12;22.85;;;10.70;;
83595;SDS011;73564;45.026;38.952;2024-03-02T06:45:38;16.42;;;8.25;;
83595;SDS011;73564;45.026;38.952;2024-03-02T06:48:04;21.63;;;10.48;;
83595;SDS011;73564;45.026;38.952;2024-03-02T06:50:30;17.73;;;9.07;;
83595;SDS011;73564;45.026;38.952;2024-03-02T06:52:56;21.02;;;9.13;;
83595;SDS011;73564;45.026;38.952;2024-03-02T06:55:22;16.50;;;8.45;;
83595;SDS011;73564;45.026;38.952;2024-03-02T07:00:15;25.58;;;8.77;;
83595;SDS011;73564;45.026;38.952;2024-03-02T07:02:43;21.63;;;9.23;;
83595;SDS011;73564;45.026;38.952;2024-03-02T07:05:10;24.73;;;8.10;;
83595;SDS011;73564;45.026;38.952;2024-03-02T07:07:36;17.88;;;8.95;;
83595;SDS011;73564;45.026;38.952;2024-03-02T07:10:05;18.10;;;7.35;;
83595;SDS011;73564;45.026;38.952;2024-03-02T07:12:32;24.58;;;9.00;;
83595;SDS011;73564;45.026;38.952;2024-03-02T07:14:58;25.50;;;9.25;;
83595;SDS011;73564;45.026;38.952;2024-03-02T07:17:30;25.05;;;8.75;;
83595;SDS011;73564;45.026;38.952;2024-03-02T07:19:57;18.25;;;9.35;;
83595;SDS011;73564;45.026;38.952;2024-03-02T07:22:22;16.95;;;7.38;;
83595;SDS011;73564;45.026;38.952;2024-03-02T07:24:49;19.58;;;9.15;;
83595;SDS011;73564;45.026;38.952;2024-03-02T07:27:15;18.08;;;8.32;;
83595;SDS011;73564;45.026;38.952;2024-03-02T07:29:42;17.40;;;9.40;;
83595;SDS011;73564;45.026;38.952;2024-03-02T07:32:08;16.92;;;7.95;;
83595;SDS011;73564;45.026;38.952;2024-03-02T07:34:35;14.77;;;8.20;;
83595;SDS011;73564;45.026;38.952;2024-03-02T07:37:01;27.05;;;11.18;;
83595;SDS011;73564;45.026;38.952;2024-03-02T07:39:27;20.67;;;10.50;;
83595;SDS011;73564;45.026;38.952;2024-03-02T07:41:54;26.15;;;10.50;;
83595;SDS011;73564;45.026;38.952;2024-03-02T07:44:20;20.83;;;10.43;;
83595;SDS011;73564;45.026;38.952;2024-03-02T07:46:46;23.75;;;9.27;;
83595;SDS011;73564;45.026;38.952;2024-03-02T07:49:14;21.67;;;11.40;;
83595;SDS011;73564;45.026;38.952;2024-03-02T07:51:41;16.65;;;9.88;;
83595;SDS011;73564;45.026;38.952;2024-03-02T07:54:07;21.67;;;9.50;;
83595;SDS011;73564;45.026;38.952;2024-03-02T07:56:33;18.88;;;7.95;;
83595;SDS011;73564;45.026;38.952;2024-03-02T07:59:00;21.40;;;8.63;;
83595;SDS011;73564;45.026;38.952;2024-03-02T08:01:30;22.88;;;8.68;;
83595;SDS011;73564;45.026;38.952;2024-03-02T08:04:02;23.13;;;10.23;;
83595;SDS011;73564;45.026;38.952;2024-03-02T08:06:31;23.17;;;8.23;;
83595;SDS011;73564;45.026;38.952;2024-03-02T08:08:57;22.52;;;8.95;;
83595;SDS011;73564;45.026;38.952;2024-03-02T08:11:25;23.38;;;11.15;;
83595;SDS011;73564;45.026;38.952;2024-03-02T08:16:20;20.98;;;11.90;;
83595;SDS011;73564;45.026;38.952;2024-03-02T08:18:48;26.42;;;11.18;;
83595;SDS011;73564;45.026;38.952;2024-03-02T08:21:14;17.45;;;9.43;;
83595;SDS011;73564;45.026;38.952;2024-03-02T08:23:40;13.93;;;8.52;;
83595;SDS011;73564;45.026;38.952;2024-03-02T08:26:08;21.88;;;11.00;;
83595;SDS011;73564;45.026;38.952;2024-03-02T08:28:34;21.42;;;10.00;;
83595;SDS011;73564;45.026;38.952;2024-03-02T08:31:02;25.13;;;10.32;;
83595;SDS011;73564;45.026;38.952;2024-03-02T08:33:29;18.52;;;8.82;;
83595;SDS011;73564;45.026;38.952;2024-03-02T08:35:55;26.48;;;10.73;;
83595;SDS011;73564;45.026;38.952;2024-03-02T08:38:21;23.25;;;10.48;;
83595;SDS011;73564;45.026;38.952;2024-03-02T08:40:47;23.33;;;9.45;;
83595;SDS011;73564;45.026;38.952;2024-03-02T08:43:12;23.20;;;8.80;;
83595;SDS011;73564;45.026;38.952;2024-03-02T08:45:42;22.52;;;9.98;;
83595;SDS011;73564;45.026;38.952;2024-03-02T08:48:08;25.02;;;10.73;;
83595;SDS011;73564;45.026;38.952;2024-03-02T08:50:34;18.60;;;8.73;;
83595;SDS011;73564;45.026;38.952;2024-03-02T08:53:05;26.77;;;9.77;;
83595;SDS011;73564;45.026;38.952;2024-03-02T08:55:31;23.17;;;8.35;;
83595;SDS011;73564;45.026;38.952;2024-03-02T08:57:57;24.35;;;11.10;;
83595;SDS011;73564;45.026;38.952;2024-03-02T09:00:23;23.33;;;9.68;;
83595;SDS011;73564;45.026;38.952;2024-03-02T09:02:49;16.77;;;8.60;;
83595;SDS011;73564;45.026;38.952;2024-03-02T09:05:15;25.10;;;9.75;;
83595;SDS011;73564;45.026;38.952;2024-03-02T09:07:41;20.33;;;9.27;;
83595;SDS011;73564;45.026;38.952;2024-03-02T09:10:07;22.05;;;8.55;;
83595;SDS011;73564;45.026;38.952;2024-03-02T09:12:34;23.48;;;9.25;;
83595;SDS011;73564;45.026;38.952;2024-03-02T09:15:00;22.17;;;10.80;;
83595;SDS011;73564;45.026;38.952;2024-03-02T09:17:28;23.52;;;10.38;;
83595;SDS011;73564;45.026;38.952;2024-03-02T09:19:54;19.48;;;9.10;;
83595;SDS011;73564;45.026;38.952;2024-03-02T09:22:19;20.52;;;10.20;;
83595;SDS011;73564;45.026;38.952;2024-03-02T09:24:45;23.63;;;10.63;;
83595;SDS011;73564;45.026;38.952;2024-03-02T09:27:11;20.83;;;9.68;;
83595;SDS011;73564;45.026;38.952;2024-03-02T09:29:37;24.67;;;11.20;;
83595;SDS011;73564;45.026;38.952;2024-03-02T09:32:03;24.92;;;11.40;;
83595;SDS011;73564;45.026;38.952;2024-03-02T09:34:31;27.48;;;10.88;;
83595;SDS011;73564;45.026;38.952;2024-03-02T09:36:56;15.82;;;7.65;;
83595;SDS011;73564;45.026;38.952;2024-03-02T09:39:23;30.30;;;13.65;;
83595;SDS011;73564;45.026;38.952;2024-03-02T09:41:50;32.50;;;11.88;;
83595;SDS011;73564;45.026;38.952;2024-03-02T09:44:15;20.25;;;9.75;;
83595;SDS011;73564;45.026;38.952;2024-03-02T09:46:41;28.00;;;12.15;;
83595;SDS011;73564;45.026;38.952;2024-03-02T09:49:12;26.65;;;11.70;;
83595;SDS011;73564;45.026;38.952;2024-03-02T09:51:41;21.88;;;11.15;;
83595;SDS011;73564;45.026;38.952;2024-03-02T09:54:12;23.02;;;10.02;;
83595;SDS011;73564;45.026;38.952;2024-03-02T09:56:38;21.33;;;10.80;;
83595;SDS011;73564;45.026;38.952;2024-03-02T09:59:05;22.42;;;9.32;;
83595;SDS011;73564;45.026;38.952;2024-03-02T10:01:30;26.23;;;11.18;;
83595;SDS011;73564;45.026;38.952;2024-03-02T10:04:00;21.27;;;10.10;;
83595;SDS011;73564;45.026;38.952;2024-03-02T10:10:15;23.58;;;11.13;;
83595;SDS011;73564;45.026;38.952;2024-03-02T10:28:16;22.08;;;11.20;;
83595;SDS011;73564;45.026;38.952;2024-03-02T10:31:53;22.83;;;10.18;;
83595;SDS011;73564;45.026;38.952;2024-03-02T10:34:19;22.13;;;9.85;;
83595;SDS011;73564;45.026;38.952;2024-03-02T10:36:47;19.13;;;9.82;;
83595;SDS011;73564;45.026;38.952;2024-03-02T10:39:13;37.15;;;14.23;;
83595;SDS011;73564;45.026;38.952;2024-03-02T10:41:39;27.75;;;11.55;;
83595;SDS011;73564;45.026;38.952;2024-03-02T10:44:09;22.10;;;8.15;;
83595;SDS011;73564;45.026;38.952;2024-03-02T10:46:36;20.23;;;9.75;;
83595;SDS011;73564;45.026;38.952;2024-03-02T10:49:03;14.63;;;7.68;;
83595;SDS011;73564;45.026;38.952;2024-03-02T10:51:31;15.88;;;8.48;;
83595;SDS011;73564;45.026;38.952;2024-03-02T10:53:58;16.67;;;8.73;;
83595;SDS011;73564;45.026;38.952;2024-03-02T10:56:41;20.17;;;7.57;;
83595;SDS011;73564;45.026;38.952;2024-03-02T10:59:28;18.38;;;8.60;;
83595;SDS011;73564;45.026;38.952;2024-03-02T11:02:01;16.80;;;6.80;;
83595;SDS011;73564;45.026;38.952;2024-03-02T11:04:28;19.80;;;8.20;;
83595;SDS011;73564;45.026;38.952;2024-03-02T11:06:58;14.07;;;7.18;;
83595;SDS011;73564;45.026;38.952;2024-03-02T11:09:28;40.25;;;15.50;;
83595;SDS011;73564;45.026;38.952;2024-03-02T11:12:05;20.98;;;8.18;;
83595;SDS011;73564;45.026;38.952;2024-03-02T11:14:37;18.10;;;9.07;;
83595;SDS011;73564;45.026;38.952;2024-03-02T11:17:05;16.45;;;7.30;;
83595;SDS011;73564;45.026;38.952;2024-03-02T11:19:32;16.20;;;7.63;;
83595;SDS011;73564;45.026;38.952;2024-03-02T11:21:59;17.70;;;8.07;;
83595;SDS011;73564;45.026;38.952;2024-03-02T11:24:28;12.40;;;6.55;;
83595;SDS011;73564;45.026;38.952;2024-03-02T11:27:04;17.13;;;7.35;;
83595;SDS011;73564;45.026;38.952;2024-03-02T11:32:03;24.45;;;8.60;;
83595;SDS011;73564;45.026;38.952;2024-03-02T11:34:30;18.60;;;7.95;;
83595;SDS011;73564;45.026;38.952;2024-03-02T11:36:57;17.65;;;7.43;;
83595;SDS011;73564;45.026;38.952;2024-03-02T11:39:27;19.55;;;8.30;;
83595;SDS011;73564;45.026;38.952;2024-03-02T11:41:53;15.43;;;6.95;;
83595;SDS011;73564;45.026;38.952;2024-03-02T11:44:20;26.20;;;12.40;;
83595;SDS011;73564;45.026;38.952;2024-03-02T11:46:57;16.02;;;7.28;;
83595;SDS011;73564;45.026;38.952;2024-03-02T11:49:37;18.70;;;7.85;;
83595;SDS011;73564;45.026;38.952;2024-03-02T11:52:07;15.95;;;7.20;;
83595;SDS011;73564;45.026;38.952;2024-03-02T11:54:35;17.48;;;9.18;;
83595;SDS011;73564;45.026;38.952;2024-03-02T11:57:05;15.65;;;7.93;;
83595;SDS011;73564;45.026;38.952;2024-03-02T11:59:33;21.77;;;8.55;;
83595;SDS011;73564;45.026;38.952;2024-03-02T12:02:00;15.43;;;8.38;;
83595;SDS011;73564;45.026;38.952;2024-03-02T12:04:26;12.38;;;6.88;;
83595;SDS011;73564;45.026;38.952;2024-03-02T12:06:55;14.57;;;6.38;;
83595;SDS011;73564;45.026;38.952;2024-03-02T12:09:26;13.32;;;6.68;;
83595;SDS011;73564;45.026;38.952;2024-03-02T12:12:05;11.77;;;6.32;;
83595;SDS011;73564;45.026;38.952;2024-03-02T12:14:32;14.50;;;7.13;;
83595;SDS011;73564;45.026;38.952;2024-03-02T12:16:58;20.27;;;8.15;;
83595;SDS011;73564;45.026;38.952;2024-03-02T12:19:25;40.42;;;15.23;;
83595;SDS011;73564;45.026;38.952;2024-03-02T12:21:52;23.95;;;10.77;;
83595;SDS011;73564;45.026;38.952;2024-03-02T12:24:18;13.68;;;7.90;;
83595;SDS011;73564;45.026;38.952;2024-03-02T12:26:44;22.10;;;7.80;;
83595;SDS011;73564;45.026;38.952;2024-03-02T12:29:11;13.10;;;7.90;;
83595;SDS011;73564;45.026;38.952;2024-03-02T12:31:37;26.13;;;11.00;;
83595;SDS011;73564;45.026;38.952;2024-03-02T12:34:11;14.50;;;7.90;;
83595;SDS011;73564;45.026;38.952;2024-03-02T12:37:00;25.50;;;12.18;;
83595;SDS011;73564;45.026;38.952;2024-03-02T12:39:27;26.33;;;13.60;;
83595;SDS011;73564;45.026;38.952;2024-03-02T12:41:52;31.60;;;14.10;;
83595;SDS011;73564;45.026;38.952;2024-03-02T12:44:22;17.33;;;8.02;;
83595;SDS011;73564;45.026;38.952;2024-03-02T12:46:51;13.48;;;6.75;;
83595;SDS011;73564;45.026;38.952;2024-03-02T12:49:21;13.07;;;6.45;;
83595;SDS011;73564;45.026;38.952;2024-03-02T12:51:48;12.75;;;6.57;;
83595;SDS011;73564;45.026;38.952;2024-03-02T12:54:21;16.52;;;7.20;;
83595;SDS011;73564;45.026;38.952;2024-03-02T12:56:52;12.45;;;5.18;;
83595;SDS011;73564;45.026;38.952;2024-03-02T12:59:19;16.10;;;6.03;;
83595;SDS011;73564;45.026;38.952;2024-03-02T13:01:53;10.10;;;5.25;;
83595;SDS011;73564;45.026;38.952;2024-03-02T13:04:28;15.20;;;4.78;;
83595;SDS011;73564;45.026;38.952;2024-03-02T13:06:55;11.80;;;5.72;;
83595;SDS011;73564;45.026;38.952;2024-03-02T13:09:23;16.85;;;8.10;;
83595;SDS011;73564;45.026;38.952;2024-03-02T13:11:49;16.08;;;6.07;;
83595;SDS011;73564;45.026;38.952;2024-03-02T13:14:15;10.15;;;5.50;;
83595;SDS011;73564;45.026;38.952;2024-03-02T13:16:41;11.88;;;6.05;;
83595;SDS011;73564;45.026;38.952;2024-03-02T13:19:07;10.35;;;5.60;;
83595;SDS011;73564;45.026;38.952;2024-03-02T13:21:36;14.38;;;3.50;;
83595;SDS011;73564;45.026;38.952;2024-03-02T13:24:01;10.80;;;4.97;;
83595;SDS011;73564;45.026;38.952;2024-03-02T13:26:28;12.68;;;5.88;;
83595;SDS011;73564;45.026;38.952;2024-03-02T13:28:54;13.43;;;6.40;;
83595;SDS011;73564;45.026;38.952;2024-03-02T13:31:20;12.75;;;5.57;;
83595;SDS011;73564;45.026;38.952;2024-03-02T13:33:46;14.00;;;6.32;;
83595;SDS011;73564;45.026;38.952;2024-03-02T13:36:12;12.68;;;5.80;;
83595;SDS011;73564;45.026;38.952;2024-03-02T13:38:38;14.75;;;6.65;;
83595;SDS011;73564;45.026;38.952;2024-03-02T13:41:03;9.43;;;5.07;;
83595;SDS011;73564;45.026;38.952;2024-03-02T13:43:29;17.23;;;6.90;;
83595;SDS011;73564;45.026;38.952;2024-03-02T13:46:00;9.48;;;4.30;;
83595;SDS011;73564;45.026;38.952;2024-03-02T13:48:27;12.25;;;6.18;;
83595;SDS011;73564;45.026;38.952;2024-03-02T13:50:53;14.07;;;5.95;;
83595;SDS011;73564;45.026;38.952;2024-03-02T13:53:19;15.65;;;6.65;;
83595;SDS011;73564;45.026;38.952;2024-03-02T13:55:45;9.82;;;5.30;;
83595;SDS011;73564;45.026;38.952;2024-03-02T13:58:11;11.80;;;4.75;;
83595;SDS011;73564;45.026;38.952;2024-03-02T14:00:37;7.93;;;3.85;;
83595;SDS011;73564;45.026;38.952;2024-03-02T14:03:04;7.07;;;4.07;;
83595;SDS011;73564;45.026;38.952;2024-03-02T14:05:31;11.23;;;5.75;;
83595;SDS011;73564;45.026;38.952;2024-03-02T14:07:57;10.75;;;4.28;;
83595;SDS011;73564;45.026;38.952;2024-03-02T14:10:25;14.18;;;4.40;;
83595;SDS011;73564;45.026;38.952;2024-03-02T14:12:51;11.43;;;5.28;;
83595;SDS011;73564;45.026;38.952;2024-03-02T14:15:16;12.57;;;5.07;;
83595;SDS011;73564;45.026;38.952;2024-03-02T14:17:42;7.30;;;3.97;;
83595;SDS011;73564;45.026;38.952;2024-03-02T14:20:08;7.15;;;3.63;;
83595;SDS011;73564;45.026;38.952;2024-03-02T14:22:36;7.15;;;3.83;;
83595;SDS011;73564;45.026;38.952;2024-03-02T14:25:03;8.70;;;4.82;;
83595;SDS011;73564;45.026;38.952;2024-03-02T14:27:29;12.88;;;5.65;;
83595;SDS011;73564;45.026;38.952;2024-03-02T14:29:55;9.25;;;4.65;;
83595;SDS011;73564;45.026;38.952;2024-03-02T14:32:21;10.88;;;5.38;;
83595;SDS011;73564;45.026;38.952;2024-03-02T14:34:46;9.50;;;4.57;;
83595;SDS011;73564;45.026;38.952;2024-03-02T14:37:13;13.40;;;5.35;;
83595;SDS011;73564;45.026;38.952;2024-03-02T14:42:05;12.13;;;4.63;;
83595;SDS011;73564;45.026;38.952;2024-03-02T14:44:31;10.45;;;4.68;;
83595;SDS011;73564;45.026;38.952;2024-03-02T14:46:57;13.18;;;4.35;;
83595;SDS011;73564;45.026;38.952;2024-03-02T14:49:26;13.95;;;5.40;;
83595;SDS011;73564;45.026;38.952;2024-03-02T14:51:52;13.57;;;5.72;;
83595;SDS011;73564;45.026;38.952;2024-03-02T14:54:18;14.00;;;5.65;;
83595;SDS011;73564;45.026;38.952;2024-03-02T14:56:43;13.57;;;6.38;;
83595;SDS011;73564;45.026;38.952;2024-03-02T14:59:09;14.40;;;6.72;;
83595;SDS011;73564;45.026;38.952;2024-03-02T15:01:36;15.00;;;6.00;;
83595;SDS011;73564;45.026;38.952;2024-03-02T15:04:01;13.82;;;6.95;;